Terminal Aerodrome Forecast
Issued by NWS Jackson, MS

Home | Current Version | Previous Version | Text Only | Print | Product List | Glossary On
Versions: 1 2 3 4 5 6 7 8 9 10 11 12 13 14 15 16 17
000
FTUS44 KJAN 041120
TAFHBG
TAF
KHBG 041120Z 0412/0512 20004KT P6SM FEW025 SCT250
     FM041400 21006KT P6SM SCT020 BKN040
     FM041800 23007KT P6SM VCTS SCT030 BKN050CB
     FM042100 24006KT 5SM -TSRA SCT030 BKN050CB
     FM050100 18005KT P6SM VCSH FEW030 SCT050 BKN150=

USA.gov is the U.S. government's official web portal to all federal, state and local government web resources and services.